POE9002 TBPB-CYYZ
Flight info
| Callsign | POE9002 |
|---|---|
| Flight time | N/A |
| Altitude | 40000 |
| Route | GEECE L466 MEEGL Y356 DONQU DCT LNHOM/M078F400 L452 OXANA/N0446F400 AR8 ECG DCT AML DCT PSB DCT WOZEE LINNG3 |
| Aircraft | E195/M-SDE3GILORVW/S |
Departure
| Time | N/A |
|---|---|
| Airport | Grantley Adams International Airport (TBPB) |
Arrival
| Time | 2026-05-08 01:16 |
|---|---|
| Airport | Toronto Pearson International Airport (CYYZ) |
| Time | Latitude | Longitude | Altitude | Speed | Heading |
|---|---|---|---|---|---|
| 2026-05-07 19:57 | 14.55459 | -62.32400 | 39973 ft | 425 kts | 293° |
| 2026-05-07 19:57 | 14.56800 | -62.35171 | 39977 ft | 424 kts | 293° |
| 2026-05-07 19:58 | 14.59399 | -62.40545 | 39975 ft | 424 kts | 293° |
| 2026-05-07 19:58 | 14.62029 | -62.45985 | 39978 ft | 423 kts | 293° |
| 2026-05-07 19:59 | 14.64645 | -62.51402 | 39973 ft | 425 kts | 294° |
| 2026-05-07 19:59 | 14.67279 | -62.56859 | 39971 ft | 425 kts | 294° |
| 2026-05-07 20:00 | 14.69913 | -62.62319 | 39967 ft | 425 kts | 294° |
| 2026-05-07 20:00 | 14.72531 | -62.67750 | 39975 ft | 425 kts | 293° |
| 2026-05-07 20:01 | 14.74756 | -62.72369 | 39975 ft | 424 kts | 294° |
| 2026-05-07 20:01 | 14.77387 | -62.77838 | 39976 ft | 424 kts | 294° |
| 2026-05-07 20:02 | 14.79992 | -62.83254 | 39971 ft | 424 kts | 294° |
| 2026-05-07 20:02 | 14.82629 | -62.88740 | 39969 ft | 425 kts | 294° |
| 2026-05-07 20:03 | 14.85237 | -62.94170 | 39968 ft | 426 kts | 294° |
| 2026-05-07 20:03 | 14.87868 | -62.99652 | 39967 ft | 425 kts | 294° |
| 2026-05-07 20:04 | 14.90496 | -63.05133 | 39968 ft | 426 kts | 294° |
| 2026-05-07 20:04 | 14.93112 | -63.10592 | 39966 ft | 426 kts | 294° |
| 2026-05-07 20:05 | 14.95746 | -63.16093 | 39967 ft | 426 kts | 294° |
| 2026-05-07 20:05 | 14.98356 | -63.21546 | 39966 ft | 426 kts | 294° |
| 2026-05-07 20:06 | 15.01533 | -63.26738 | 39978 ft | 430 kts | 310° |
| 2026-05-07 20:06 | 15.05680 | -63.31207 | 39969 ft | 430 kts | 311° |
| 2026-05-07 20:07 | 15.09665 | -63.35560 | 39964 ft | 431 kts | 311° |
| 2026-05-07 20:07 | 15.13361 | -63.39605 | 39966 ft | 431 kts | 311° |
| 2026-05-07 20:08 | 15.17460 | -63.44096 | 39969 ft | 431 kts | 311° |
| 2026-05-07 20:08 | 15.21575 | -63.48605 | 39967 ft | 431 kts | 311° |
| 2026-05-07 20:09 | 15.25689 | -63.53118 | 39971 ft | 430 kts | 311° |
| 2026-05-07 20:10 | 15.31850 | -63.59880 | 39975 ft | 430 kts | 311° |
| 2026-05-07 20:10 | 15.35935 | -63.64368 | 39972 ft | 430 kts | 311° |
| 2026-05-07 20:11 | 15.40048 | -63.68888 | 39978 ft | 431 kts | 311° |
| 2026-05-07 20:11 | 15.44159 | -63.73410 | 39981 ft | 430 kts | 311° |
| 2026-05-07 20:12 | 15.48251 | -63.77913 | 39982 ft | 429 kts | 311° |
| 2026-05-07 20:12 | 15.52347 | -63.82424 | 39981 ft | 429 kts | 311° |
| 2026-05-07 20:13 | 15.56416 | -63.86907 | 39981 ft | 429 kts | 311° |
| 2026-05-07 20:13 | 15.60538 | -63.91451 | 39982 ft | 433 kts | 312° |
| 2026-05-07 20:14 | 15.64619 | -63.95953 | 39981 ft | 430 kts | 312° |
| 2026-05-07 20:14 | 15.68727 | -64.00489 | 39983 ft | 430 kts | 312° |
| 2026-05-07 20:15 | 15.72817 | -64.05006 | 39985 ft | 430 kts | 312° |
| 2026-05-07 20:15 | 15.76903 | -64.09523 | 39982 ft | 429 kts | 312° |
| 2026-05-07 20:16 | 15.80985 | -64.14038 | 39981 ft | 429 kts | 312° |
| 2026-05-07 20:16 | 15.85066 | -64.18554 | 39981 ft | 429 kts | 313° |
| 2026-05-07 20:17 | 15.89159 | -64.23087 | 39985 ft | 430 kts | 313° |
| 2026-05-07 20:17 | 15.93240 | -64.27609 | 39984 ft | 430 kts | 313° |
| 2026-05-07 20:18 | 15.97328 | -64.32143 | 39983 ft | 430 kts | 313° |
| 2026-05-07 20:18 | 16.01404 | -64.36665 | 39985 ft | 430 kts | 313° |
| 2026-05-07 20:19 | 16.05485 | -64.41196 | 39983 ft | 431 kts | 313° |
| 2026-05-07 20:19 | 16.09577 | -64.45741 | 39988 ft | 429 kts | 313° |
| 2026-05-07 20:20 | 16.13678 | -64.50301 | 39992 ft | 430 kts | 313° |
| 2026-05-07 20:20 | 16.17734 | -64.54813 | 39989 ft | 430 kts | 314° |
| 2026-05-07 20:21 | 16.21824 | -64.59366 | 39991 ft | 431 kts | 314° |
| 2026-05-07 20:21 | 16.25924 | -64.63932 | 39990 ft | 431 kts | 314° |
| 2026-05-07 20:22 | 16.30000 | -64.68475 | 39992 ft | 430 kts | 314° |
| 2026-05-07 20:22 | 16.34091 | -64.73038 | 39991 ft | 430 kts | 314° |
| 2026-05-07 20:23 | 16.38170 | -64.77590 | 39988 ft | 430 kts | 314° |
| 2026-05-07 20:23 | 16.42236 | -64.82131 | 39991 ft | 431 kts | 315° |
| 2026-05-07 20:24 | 16.46333 | -64.86710 | 39989 ft | 432 kts | 315° |
| 2026-05-07 20:24 | 16.50443 | -64.91306 | 39988 ft | 433 kts | 315° |
| 2026-05-07 20:25 | 16.54526 | -64.95875 | 39985 ft | 433 kts | 315° |
| 2026-05-07 20:25 | 16.58589 | -65.00424 | 39986 ft | 432 kts | 315° |
| 2026-05-07 20:26 | 16.62452 | -65.04753 | 39984 ft | 432 kts | 315° |
| 2026-05-07 20:26 | 16.66540 | -65.09337 | 39986 ft | 432 kts | 316° |
| 2026-05-07 20:27 | 16.70632 | -65.13927 | 39986 ft | 433 kts | 316° |
| 2026-05-07 20:27 | 16.74735 | -65.18534 | 39984 ft | 434 kts | 316° |
| 2026-05-07 20:28 | 16.78855 | -65.23163 | 39985 ft | 436 kts | 316° |
| 2026-05-07 20:28 | 16.82945 | -65.27761 | 39985 ft | 433 kts | 316° |
| 2026-05-07 20:29 | 16.87059 | -65.32389 | 39985 ft | 434 kts | 316° |
| 2026-05-07 20:29 | 16.91145 | -65.36990 | 39985 ft | 435 kts | 317° |
| 2026-05-07 20:30 | 16.95263 | -65.41628 | 39985 ft | 434 kts | 317° |
| 2026-05-07 20:30 | 16.99288 | -65.46166 | 39987 ft | 435 kts | 317° |
| 2026-05-07 20:31 | 17.03382 | -65.50784 | 39986 ft | 433 kts | 317° |
| 2026-05-07 20:31 | 17.07486 | -65.55418 | 39988 ft | 432 kts | 317° |
| 2026-05-07 20:32 | 17.11561 | -65.60021 | 39998 ft | 433 kts | 318° |
| 2026-05-07 20:32 | 17.15646 | -65.64639 | 39999 ft | 433 kts | 318° |
| 2026-05-07 20:33 | 17.19734 | -65.69264 | 39993 ft | 432 kts | 317° |
| 2026-05-07 20:33 | 17.23788 | -65.73853 | 39996 ft | 430 kts | 318° |
| 2026-05-07 20:34 | 17.27857 | -65.78463 | 39996 ft | 432 kts | 317° |
| 2026-05-07 20:34 | 17.31918 | -65.83067 | 39994 ft | 431 kts | 318° |
| 2026-05-07 20:35 | 17.35970 | -65.87663 | 39997 ft | 429 kts | 318° |
| 2026-05-07 20:35 | 17.40011 | -65.92251 | 39995 ft | 430 kts | 318° |
| 2026-05-07 20:36 | 17.44071 | -65.96864 | 39996 ft | 428 kts | 318° |
| 2026-05-07 20:36 | 17.48113 | -66.01457 | 39998 ft | 430 kts | 318° |
| 2026-05-07 20:37 | 17.52138 | -66.06037 | 39999 ft | 428 kts | 318° |
| 2026-05-07 20:37 | 17.56179 | -66.10637 | 39998 ft | 429 kts | 318° |
| 2026-05-07 20:38 | 17.60228 | -66.15250 | 39992 ft | 430 kts | 319° |
| 2026-05-07 20:38 | 17.64240 | -66.19824 | 39994 ft | 429 kts | 319° |
| 2026-05-07 20:39 | 17.68298 | -66.24454 | 40000 ft | 428 kts | 319° |
| 2026-05-07 20:39 | 17.72310 | -66.29034 | 39992 ft | 428 kts | 319° |
| 2026-05-07 20:40 | 17.76331 | -66.33627 | 39995 ft | 427 kts | 319° |
| 2026-05-07 20:40 | 17.80344 | -66.38216 | 39994 ft | 428 kts | 319° |
| 2026-05-07 20:41 | 17.84346 | -66.42795 | 40000 ft | 428 kts | 319° |
| 2026-05-07 20:41 | 17.88361 | -66.47392 | 39996 ft | 427 kts | 319° |
| 2026-05-07 20:42 | 17.92360 | -66.51974 | 40001 ft | 425 kts | 319° |
| 2026-05-07 20:42 | 17.96343 | -66.56542 | 39997 ft | 422 kts | 320° |
| 2026-05-07 20:43 | 18.00314 | -66.61097 | 40001 ft | 426 kts | 319° |
| 2026-05-07 20:43 | 18.04289 | -66.65662 | 40002 ft | 424 kts | 320° |
| 2026-05-07 20:44 | 18.08271 | -66.70237 | 40002 ft | 423 kts | 319° |
| 2026-05-07 20:44 | 18.12252 | -66.74815 | 40033 ft | 422 kts | 319° |
| 2026-05-07 20:45 | 18.16214 | -66.79373 | 40029 ft | 424 kts | 319° |
| 2026-05-07 20:45 | 18.20145 | -66.83901 | 40030 ft | 420 kts | 319° |
| 2026-05-07 20:46 | 18.24105 | -66.88464 | 40030 ft | 419 kts | 319° |
| 2026-05-07 20:46 | 18.28024 | -66.92985 | 40033 ft | 421 kts | 320° |
| 2026-05-07 20:47 | 18.31957 | -66.97523 | 40021 ft | 422 kts | 320° |
| 2026-05-07 20:47 | 18.35908 | -67.02087 | 40020 ft | 421 kts | 320° |
| 2026-05-07 20:48 | 18.39814 | -67.06602 | 40015 ft | 417 kts | 320° |
| 2026-05-07 20:48 | 18.43742 | -67.11143 | 40012 ft | 421 kts | 320° |
| 2026-05-07 20:49 | 18.47688 | -67.15587 | 40009 ft | 412 kts | 326° |
| 2026-05-07 20:49 | 18.52446 | -67.18680 | 40018 ft | 394 kts | 345° |
| 2026-05-07 20:50 | 18.57572 | -67.20786 | 40002 ft | 396 kts | 344° |
| 2026-05-07 20:50 | 18.62713 | -67.22958 | 39996 ft | 394 kts | 343° |
| 2026-05-07 20:51 | 18.67825 | -67.25124 | 39998 ft | 397 kts | 343° |
| 2026-05-07 20:51 | 18.72929 | -67.27291 | 39988 ft | 393 kts | 343° |
| 2026-05-07 20:52 | 18.78002 | -67.29445 | 39991 ft | 393 kts | 343° |
| 2026-05-07 20:52 | 18.83108 | -67.31615 | 39985 ft | 396 kts | 343° |
| 2026-05-07 20:53 | 18.88199 | -67.33780 | 39988 ft | 393 kts | 343° |
| 2026-05-07 20:53 | 18.93270 | -67.35938 | 39982 ft | 394 kts | 343° |
| 2026-05-07 20:54 | 18.98347 | -67.38100 | 39984 ft | 392 kts | 343° |
| 2026-05-07 20:54 | 19.03418 | -67.40260 | 39986 ft | 394 kts | 343° |
| 2026-05-07 20:55 | 19.08515 | -67.42433 | 39983 ft | 394 kts | 343° |
| 2026-05-07 20:55 | 19.13608 | -67.44606 | 40005 ft | 394 kts | 343° |
| 2026-05-07 20:56 | 19.18649 | -67.46758 | 40006 ft | 392 kts | 342° |
| 2026-05-07 20:56 | 19.23728 | -67.48928 | 40011 ft | 393 kts | 342° |
| 2026-05-07 20:57 | 19.28781 | -67.51089 | 40012 ft | 391 kts | 342° |
| 2026-05-07 20:57 | 19.33869 | -67.53265 | 40015 ft | 393 kts | 342° |
| 2026-05-07 20:58 | 19.38935 | -67.55434 | 40018 ft | 395 kts | 342° |
| 2026-05-07 20:58 | 19.44005 | -67.57605 | 40015 ft | 392 kts | 342° |
| 2026-05-07 20:59 | 19.49083 | -67.59782 | 40014 ft | 393 kts | 341° |
| 2026-05-07 20:59 | 19.54137 | -67.61950 | 40012 ft | 393 kts | 341° |
| 2026-05-07 21:00 | 19.59204 | -67.64125 | 40004 ft | 392 kts | 341° |
| 2026-05-07 21:00 | 19.64292 | -67.66310 | 40006 ft | 392 kts | 341° |
| 2026-05-07 21:01 | 19.69352 | -67.68484 | 40002 ft | 395 kts | 341° |
| 2026-05-07 21:01 | 19.74422 | -67.70665 | 40005 ft | 394 kts | 341° |
| 2026-05-07 21:02 | 19.79506 | -67.72854 | 40008 ft | 394 kts | 341° |
| 2026-05-07 21:02 | 19.84578 | -67.75038 | 40003 ft | 395 kts | 341° |
| 2026-05-07 21:03 | 19.89670 | -67.77232 | 40004 ft | 396 kts | 340° |
| 2026-05-07 21:03 | 19.94772 | -67.79433 | 40007 ft | 395 kts | 341° |
| 2026-05-07 21:04 | 19.99851 | -67.81625 | 40003 ft | 395 kts | 341° |
| 2026-05-07 21:04 | 20.04970 | -67.83836 | 40002 ft | 395 kts | 340° |
| 2026-05-07 21:05 | 20.10056 | -67.86034 | 40003 ft | 396 kts | 340° |
| 2026-05-07 21:05 | 20.15197 | -67.88258 | 40022 ft | 399 kts | 340° |
| 2026-05-07 21:06 | 20.20381 | -67.90501 | 40017 ft | 404 kts | 340° |
| 2026-05-07 21:06 | 20.25592 | -67.92759 | 40023 ft | 403 kts | 340° |
| 2026-05-07 21:07 | 20.30764 | -67.95001 | 40015 ft | 403 kts | 340° |
| 2026-05-07 21:07 | 20.35965 | -67.97257 | 40015 ft | 401 kts | 340° |
| 2026-05-07 21:08 | 20.41143 | -67.99505 | 40011 ft | 402 kts | 340° |
| 2026-05-07 21:08 | 20.46330 | -68.01759 | 40006 ft | 403 kts | 340° |
| 2026-05-07 21:09 | 20.51519 | -68.04014 | 40006 ft | 403 kts | 340° |
| 2026-05-07 21:09 | 20.56687 | -68.06261 | 40003 ft | 396 kts | 340° |
| 2026-05-07 21:10 | 20.61813 | -68.08494 | 40005 ft | 401 kts | 340° |
| 2026-05-07 21:10 | 20.66959 | -68.10735 | 40004 ft | 398 kts | 340° |
| 2026-05-07 21:11 | 20.72027 | -68.13150 | 40009 ft | 403 kts | 332° |
| 2026-05-07 21:11 | 20.79277 | -68.17853 | 40006 ft | 407 kts | 332° |
| 2026-05-07 21:12 | 20.84139 | -68.21011 | 40006 ft | 410 kts | 332° |
| 2026-05-07 21:12 | 20.88968 | -68.24150 | 40000 ft | 408 kts | 332° |
| 2026-05-07 21:13 | 20.93848 | -68.27325 | 40003 ft | 407 kts | 332° |
| 2026-05-07 21:13 | 20.98681 | -68.30471 | 40001 ft | 409 kts | 332° |
| 2026-05-07 21:14 | 21.03521 | -68.33624 | 40004 ft | 407 kts | 332° |
| 2026-05-07 21:14 | 21.08401 | -68.36806 | 40002 ft | 411 kts | 332° |
| 2026-05-07 21:15 | 21.13278 | -68.39989 | 40011 ft | 410 kts | 332° |
| 2026-05-07 21:15 | 21.18128 | -68.43156 | 40012 ft | 410 kts | 332° |
| 2026-05-07 21:16 | 21.23015 | -68.46349 | 40013 ft | 409 kts | 332° |
| 2026-05-07 21:16 | 21.27897 | -68.49541 | 40013 ft | 411 kts | 332° |
| 2026-05-07 21:17 | 21.32746 | -68.52716 | 40011 ft | 411 kts | 332° |
| 2026-05-07 21:17 | 21.37627 | -68.55913 | 40012 ft | 410 kts | 332° |
| 2026-05-07 21:18 | 21.42480 | -68.59095 | 40015 ft | 411 kts | 332° |
| 2026-05-07 21:18 | 21.47349 | -68.62290 | 40016 ft | 411 kts | 332° |
| 2026-05-07 21:19 | 21.52265 | -68.65518 | 40015 ft | 412 kts | 332° |
| 2026-05-07 21:19 | 21.57111 | -68.68703 | 40017 ft | 411 kts | 331° |
| 2026-05-07 21:20 | 21.62023 | -68.71933 | 40017 ft | 412 kts | 331° |
| 2026-05-07 21:20 | 21.66901 | -68.75143 | 40022 ft | 412 kts | 331° |
| 2026-05-07 21:21 | 21.71802 | -68.78371 | 40020 ft | 412 kts | 331° |
| 2026-05-07 21:21 | 21.76692 | -68.81596 | 40019 ft | 413 kts | 331° |
| 2026-05-07 21:22 | 21.81583 | -68.84823 | 40022 ft | 413 kts | 331° |
| 2026-05-07 21:22 | 21.86503 | -68.88071 | 40016 ft | 414 kts | 330° |
| 2026-05-07 21:23 | 21.91398 | -68.91306 | 40021 ft | 414 kts | 331° |
| 2026-05-07 21:23 | 21.96334 | -68.94572 | 40021 ft | 415 kts | 331° |
| 2026-05-07 21:24 | 22.01252 | -68.97827 | 40021 ft | 415 kts | 331° |
| 2026-05-07 21:24 | 22.06173 | -69.01088 | 40023 ft | 417 kts | 331° |
| 2026-05-07 21:25 | 22.11097 | -69.04353 | 40035 ft | 413 kts | 331° |
| 2026-05-07 21:25 | 22.16011 | -69.07614 | 40033 ft | 415 kts | 330° |
| 2026-05-07 21:26 | 22.20930 | -69.10881 | 40032 ft | 413 kts | 330° |
| 2026-05-07 21:26 | 22.25820 | -69.14132 | 40034 ft | 412 kts | 330° |
| 2026-05-07 21:27 | 22.30689 | -69.17371 | 40033 ft | 411 kts | 330° |
| 2026-05-07 21:27 | 22.35565 | -69.20617 | 40031 ft | 413 kts | 330° |
| 2026-05-07 21:28 | 22.40458 | -69.23877 | 40032 ft | 412 kts | 330° |
| 2026-05-07 21:28 | 22.45303 | -69.27109 | 40031 ft | 410 kts | 330° |
| 2026-05-07 21:29 | 22.50168 | -69.30356 | 40031 ft | 410 kts | 330° |
| 2026-05-07 21:29 | 22.55018 | -69.33597 | 40029 ft | 412 kts | 330° |
| 2026-05-07 21:30 | 22.59899 | -69.36860 | 40028 ft | 409 kts | 330° |
| 2026-05-07 21:30 | 22.64733 | -69.40095 | 40026 ft | 410 kts | 330° |
| 2026-05-07 21:31 | 22.69615 | -69.43364 | 40030 ft | 411 kts | 330° |
| 2026-05-07 21:31 | 22.74435 | -69.46596 | 40024 ft | 409 kts | 330° |
| 2026-05-07 21:32 | 22.79303 | -69.49861 | 40025 ft | 408 kts | 330° |
| 2026-05-07 21:32 | 22.84137 | -69.53107 | 40022 ft | 410 kts | 330° |
| 2026-05-07 21:33 | 22.88986 | -69.56366 | 40022 ft | 409 kts | 330° |
| 2026-05-07 21:33 | 22.93782 | -69.59591 | 40028 ft | 407 kts | 330° |
| 2026-05-07 21:34 | 22.98636 | -69.62859 | 40020 ft | 409 kts | 330° |
| 2026-05-07 21:34 | 23.03445 | -69.66099 | 40024 ft | 407 kts | 330° |
| 2026-05-07 21:35 | 23.08267 | -69.69350 | 40023 ft | 408 kts | 330° |
| 2026-05-07 21:35 | 23.13066 | -69.72589 | 40036 ft | 409 kts | 329° |
| 2026-05-07 21:36 | 23.17908 | -69.75859 | 40040 ft | 407 kts | 329° |
| 2026-05-07 21:36 | 23.22714 | -69.79108 | 40040 ft | 408 kts | 329° |
| 2026-05-07 21:37 | 23.27506 | -69.82351 | 40041 ft | 407 kts | 329° |
| 2026-05-07 21:37 | 23.32320 | -69.85611 | 40032 ft | 408 kts | 329° |
| 2026-05-07 21:38 | 23.37135 | -69.88874 | 40043 ft | 407 kts | 329° |
| 2026-05-07 21:38 | 23.41967 | -69.92152 | 40041 ft | 409 kts | 329° |
| 2026-05-07 21:39 | 23.46783 | -69.95422 | 40036 ft | 407 kts | 329° |
| 2026-05-07 21:39 | 23.51601 | -69.98696 | 40038 ft | 407 kts | 329° |
| 2026-05-07 21:40 | 23.56384 | -70.01949 | 40038 ft | 408 kts | 329° |
| 2026-05-07 21:40 | 23.61207 | -70.05233 | 40040 ft | 408 kts | 329° |
| 2026-05-07 21:41 | 23.66019 | -70.08511 | 40039 ft | 408 kts | 329° |
| 2026-05-07 21:41 | 23.70848 | -70.11804 | 40039 ft | 409 kts | 329° |
| 2026-05-07 21:42 | 23.75656 | -70.15086 | 40042 ft | 408 kts | 329° |
| 2026-05-07 21:42 | 23.80491 | -70.18389 | 40041 ft | 407 kts | 329° |
| 2026-05-07 21:43 | 23.85292 | -70.21671 | 40041 ft | 409 kts | 329° |
| 2026-05-07 21:43 | 23.90113 | -70.24971 | 40043 ft | 408 kts | 329° |
| 2026-05-07 21:44 | 23.94933 | -70.28273 | 40043 ft | 408 kts | 329° |
| 2026-05-07 21:44 | 23.99729 | -70.31561 | 40041 ft | 408 kts | 329° |
| 2026-05-07 21:45 | 24.04542 | -70.34863 | 40043 ft | 407 kts | 329° |
| 2026-05-07 21:45 | 24.09346 | -70.38163 | 40042 ft | 409 kts | 329° |
| 2026-05-07 21:46 | 24.14178 | -70.41485 | 40050 ft | 409 kts | 329° |
| 2026-05-07 21:46 | 24.18979 | -70.44788 | 40053 ft | 410 kts | 329° |
| 2026-05-07 21:47 | 24.23826 | -70.48126 | 40052 ft | 409 kts | 329° |
| 2026-05-07 21:47 | 24.28622 | -70.51431 | 40050 ft | 409 kts | 329° |
| 2026-05-07 21:48 | 24.33443 | -70.54757 | 40051 ft | 409 kts | 329° |
| 2026-05-07 21:48 | 24.38237 | -70.58068 | 40049 ft | 410 kts | 329° |
| 2026-05-07 21:49 | 24.43066 | -70.61406 | 40047 ft | 409 kts | 329° |
| 2026-05-07 21:49 | 24.47860 | -70.64722 | 40048 ft | 409 kts | 329° |
| 2026-05-07 21:50 | 24.53007 | -70.68287 | 40049 ft | 409 kts | 329° |
| 2026-05-07 21:50 | 24.57845 | -70.71640 | 40050 ft | 409 kts | 329° |
| 2026-05-07 21:51 | 24.62657 | -70.74979 | 40050 ft | 411 kts | 329° |
| 2026-05-07 21:51 | 24.67475 | -70.78324 | 40048 ft | 409 kts | 329° |
| 2026-05-07 21:52 | 24.72272 | -70.81658 | 40047 ft | 409 kts | 329° |
| 2026-05-07 21:52 | 24.77109 | -70.85023 | 40047 ft | 409 kts | 329° |
| 2026-05-07 21:53 | 24.81922 | -70.88375 | 40043 ft | 408 kts | 329° |
| 2026-05-07 21:53 | 24.86662 | -70.91679 | 40044 ft | 404 kts | 329° |
| 2026-05-07 21:54 | 24.91427 | -70.95003 | 40045 ft | 406 kts | 329° |
| 2026-05-07 21:54 | 24.96184 | -70.98325 | 40045 ft | 405 kts | 329° |
| 2026-05-07 21:55 | 25.01106 | -71.01267 | 40057 ft | 405 kts | 341° |
| 2026-05-07 21:55 | 25.06621 | -71.02773 | 40045 ft | 410 kts | 346° |
| 2026-05-07 21:56 | 25.12203 | -71.04245 | 40055 ft | 410 kts | 346° |
| 2026-05-07 21:56 | 25.17743 | -71.05720 | 40047 ft | 409 kts | 346° |
| 2026-05-07 21:57 | 25.23279 | -71.07196 | 40053 ft | 410 kts | 346° |
| 2026-05-07 21:57 | 25.28852 | -71.08684 | 40050 ft | 410 kts | 346° |
| 2026-05-07 21:58 | 25.34367 | -71.10158 | 40050 ft | 411 kts | 346° |
| 2026-05-07 21:58 | 25.39938 | -71.11648 | 40049 ft | 410 kts | 346° |
| 2026-05-07 21:59 | 25.45479 | -71.13132 | 40050 ft | 411 kts | 346° |
| 2026-05-07 21:59 | 25.51029 | -71.14619 | 40050 ft | 410 kts | 346° |
| 2026-05-07 22:00 | 25.56593 | -71.16112 | 40046 ft | 410 kts | 346° |
| 2026-05-07 22:00 | 25.62144 | -71.17602 | 40047 ft | 411 kts | 346° |
| 2026-05-07 22:01 | 25.67714 | -71.19099 | 40048 ft | 411 kts | 346° |
| 2026-05-07 22:01 | 25.73287 | -71.20599 | 40044 ft | 411 kts | 346° |
| 2026-05-07 22:02 | 25.78836 | -71.22093 | 40049 ft | 410 kts | 346° |
| 2026-05-07 22:02 | 25.84400 | -71.23592 | 40042 ft | 412 kts | 346° |
| 2026-05-07 22:03 | 25.89963 | -71.25094 | 40049 ft | 413 kts | 346° |
| 2026-05-07 22:03 | 25.95540 | -71.26600 | 40044 ft | 411 kts | 346° |
| 2026-05-07 22:04 | 26.01103 | -71.28104 | 40043 ft | 411 kts | 346° |
| 2026-05-07 22:04 | 26.06705 | -71.29620 | 40040 ft | 411 kts | 346° |
| 2026-05-07 22:05 | 26.12233 | -71.31117 | 40056 ft | 411 kts | 346° |
| 2026-05-07 22:05 | 26.17813 | -71.32629 | 40051 ft | 411 kts | 345° |
| 2026-05-07 22:06 | 26.23352 | -71.34133 | 40051 ft | 410 kts | 345° |
| 2026-05-07 22:06 | 26.28916 | -71.35644 | 40051 ft | 409 kts | 346° |
| 2026-05-07 22:07 | 26.34455 | -71.37151 | 40046 ft | 409 kts | 345° |
| 2026-05-07 22:07 | 26.40010 | -71.38663 | 40051 ft | 411 kts | 345° |
| 2026-05-07 22:08 | 26.45576 | -71.40179 | 40045 ft | 410 kts | 345° |
| 2026-05-07 22:08 | 26.51119 | -71.41692 | 40047 ft | 410 kts | 345° |
| 2026-05-07 22:09 | 26.56638 | -71.43198 | 40048 ft | 410 kts | 345° |
| 2026-05-07 22:09 | 26.62186 | -71.44714 | 40047 ft | 409 kts | 345° |
| 2026-05-07 22:10 | 26.67724 | -71.46230 | 40043 ft | 410 kts | 345° |
| 2026-05-07 22:10 | 26.73266 | -71.47747 | 40045 ft | 409 kts | 345° |
| 2026-05-07 22:11 | 26.78796 | -71.49263 | 40042 ft | 410 kts | 345° |
| 2026-05-07 22:11 | 26.84327 | -71.50781 | 40044 ft | 409 kts | 345° |
| 2026-05-07 22:12 | 26.89862 | -71.52300 | 40043 ft | 409 kts | 345° |
| 2026-05-07 22:12 | 26.95366 | -71.53814 | 40041 ft | 409 kts | 345° |
| 2026-05-07 22:13 | 27.00909 | -71.55340 | 40042 ft | 410 kts | 345° |
| 2026-05-07 22:13 | 27.06458 | -71.56868 | 40038 ft | 409 kts | 344° |
| 2026-05-07 22:14 | 27.11980 | -71.58391 | 40053 ft | 409 kts | 344° |
| 2026-05-07 22:14 | 27.17483 | -71.59911 | 40049 ft | 408 kts | 344° |
| 2026-05-07 22:15 | 27.23028 | -71.61442 | 40047 ft | 409 kts | 344° |
| 2026-05-07 22:15 | 27.28523 | -71.62962 | 40048 ft | 407 kts | 344° |
| 2026-05-07 22:16 | 27.34043 | -71.64490 | 40047 ft | 408 kts | 344° |
| 2026-05-07 22:16 | 27.39554 | -71.66019 | 40053 ft | 408 kts | 343° |
| 2026-05-07 22:17 | 27.45090 | -71.67554 | 40055 ft | 409 kts | 343° |
| 2026-05-07 22:17 | 27.50601 | -71.69085 | 40053 ft | 408 kts | 343° |
| 2026-05-07 22:18 | 27.58875 | -71.71387 | 40051 ft | 409 kts | 343° |
| 2026-05-07 22:19 | 27.64400 | -71.72925 | 40049 ft | 408 kts | 343° |
| 2026-05-07 22:19 | 27.69923 | -71.74464 | 40050 ft | 409 kts | 343° |
| 2026-05-07 22:20 | 27.75417 | -71.75997 | 40051 ft | 409 kts | 343° |
| 2026-05-07 22:20 | 27.80945 | -71.77542 | 40045 ft | 408 kts | 343° |
| 2026-05-07 22:21 | 27.86435 | -71.79077 | 40047 ft | 408 kts | 343° |
| 2026-05-07 22:21 | 27.91950 | -71.80621 | 40051 ft | 407 kts | 342° |
| 2026-05-07 22:22 | 27.97458 | -71.82165 | 40058 ft | 408 kts | 342° |
| 2026-05-07 22:22 | 28.02940 | -71.83702 | 40067 ft | 409 kts | 342° |
| 2026-05-07 22:23 | 28.08452 | -71.85250 | 40067 ft | 407 kts | 343° |
| 2026-05-07 22:23 | 28.13943 | -71.86794 | 40066 ft | 403 kts | 343° |
| 2026-05-07 22:24 | 28.19361 | -71.88318 | 40071 ft | 402 kts | 342° |
| 2026-05-07 22:24 | 28.24818 | -71.89855 | 40070 ft | 402 kts | 342° |
| 2026-05-07 22:25 | 28.30233 | -71.91383 | 40067 ft | 400 kts | 342° |
| 2026-05-07 22:25 | 28.35691 | -71.92924 | 40071 ft | 408 kts | 342° |
| 2026-05-07 22:26 | 28.41188 | -71.94477 | 40063 ft | 409 kts | 342° |
| 2026-05-07 22:26 | 28.46715 | -71.96041 | 40060 ft | 408 kts | 342° |
| 2026-05-07 22:27 | 28.52219 | -71.97600 | 40060 ft | 408 kts | 342° |
| 2026-05-07 22:27 | 28.57734 | -71.99164 | 40060 ft | 408 kts | 342° |
| 2026-05-07 22:28 | 28.63238 | -72.00726 | 40058 ft | 408 kts | 342° |
| 2026-05-07 22:28 | 28.68727 | -72.02286 | 40048 ft | 409 kts | 342° |
| 2026-05-07 22:29 | 28.74246 | -72.03856 | 40041 ft | 408 kts | 342° |
| 2026-05-07 22:29 | 28.79763 | -72.05427 | 40036 ft | 408 kts | 342° |
| 2026-05-07 22:30 | 28.85245 | -72.06990 | 40032 ft | 408 kts | 342° |
| 2026-05-07 22:30 | 28.90753 | -72.08562 | 40032 ft | 408 kts | 342° |
| 2026-05-07 22:31 | 28.96279 | -72.10141 | 40028 ft | 409 kts | 342° |
| 2026-05-07 22:31 | 29.01800 | -72.11719 | 40022 ft | 408 kts | 341° |
| 2026-05-07 22:32 | 29.07324 | -72.13302 | 40022 ft | 409 kts | 341° |
| 2026-05-07 22:32 | 29.12828 | -72.14880 | 40032 ft | 410 kts | 342° |
| 2026-05-07 22:33 | 29.18347 | -72.16464 | 40034 ft | 408 kts | 341° |
| 2026-05-07 22:33 | 29.23881 | -72.18053 | 40030 ft | 409 kts | 341° |
| 2026-05-07 22:34 | 29.29367 | -72.19631 | 40032 ft | 407 kts | 341° |
| 2026-05-07 22:34 | 29.34893 | -72.21223 | 40029 ft | 410 kts | 341° |
| 2026-05-07 22:35 | 29.40386 | -72.22806 | 40028 ft | 409 kts | 341° |
| 2026-05-07 22:35 | 29.45945 | -72.24410 | 40027 ft | 408 kts | 341° |
| 2026-05-07 22:36 | 29.51428 | -72.25994 | 40027 ft | 409 kts | 341° |
| 2026-05-07 22:36 | 29.56966 | -72.27596 | 40028 ft | 410 kts | 341° |
| 2026-05-07 22:37 | 29.62495 | -72.29197 | 40025 ft | 407 kts | 341° |
| 2026-05-07 22:37 | 29.68005 | -72.30795 | 40025 ft | 408 kts | 341° |
| 2026-05-07 22:38 | 29.73504 | -72.32390 | 40024 ft | 408 kts | 341° |
| 2026-05-07 22:38 | 29.79011 | -72.33991 | 40024 ft | 409 kts | 340° |
| 2026-05-07 22:39 | 29.84530 | -72.35596 | 40022 ft | 409 kts | 340° |
| 2026-05-07 22:39 | 29.90024 | -72.37196 | 40025 ft | 409 kts | 340° |
| 2026-05-07 22:40 | 29.95538 | -72.38803 | 40021 ft | 405 kts | 340° |
| 2026-05-07 22:40 | 30.00989 | -72.40395 | 40015 ft | 403 kts | 340° |
| 2026-05-07 22:41 | 30.06415 | -72.41980 | 40012 ft | 402 kts | 340° |
| 2026-05-07 22:41 | 30.11866 | -72.43574 | 40022 ft | 403 kts | 340° |
| 2026-05-07 22:42 | 30.17335 | -72.45182 | 40021 ft | 405 kts | 340° |
| 2026-05-07 22:42 | 30.22803 | -72.46812 | 40014 ft | 408 kts | 340° |
| 2026-05-07 22:43 | 30.28285 | -72.48447 | 40010 ft | 408 kts | 340° |
| 2026-05-07 22:43 | 30.33809 | -72.50096 | 40010 ft | 409 kts | 340° |
| 2026-05-07 22:44 | 30.39252 | -72.51723 | 40006 ft | 403 kts | 340° |
| 2026-05-07 22:44 | 30.44667 | -72.53344 | 40010 ft | 403 kts | 340° |
| 2026-05-07 22:45 | 30.50076 | -72.54964 | 40009 ft | 402 kts | 340° |
| 2026-05-07 22:45 | 30.55505 | -72.56593 | 40005 ft | 401 kts | 340° |
| 2026-05-07 22:46 | 30.60971 | -72.58234 | 40007 ft | 409 kts | 339° |
| 2026-05-07 22:46 | 30.66483 | -72.59892 | 40006 ft | 410 kts | 339° |
| 2026-05-07 22:47 | 30.71993 | -72.61550 | 39999 ft | 408 kts | 339° |
| 2026-05-07 22:47 | 30.77512 | -72.63213 | 39993 ft | 404 kts | 339° |
| 2026-05-07 22:48 | 30.82908 | -72.64841 | 40000 ft | 403 kts | 339° |
| 2026-05-07 22:48 | 30.88326 | -72.66479 | 40011 ft | 402 kts | 339° |
| 2026-05-07 22:49 | 30.93733 | -72.68114 | 40012 ft | 404 kts | 339° |
| 2026-05-07 22:49 | 30.99184 | -72.69764 | 40006 ft | 403 kts | 338° |
| 2026-05-07 22:50 | 31.04610 | -72.71409 | 40005 ft | 403 kts | 339° |
| 2026-05-07 22:50 | 31.10063 | -72.73064 | 40001 ft | 402 kts | 338° |
| 2026-05-07 22:51 | 31.15470 | -72.74707 | 40013 ft | 403 kts | 338° |
| 2026-05-07 22:51 | 31.20893 | -72.76356 | 40002 ft | 404 kts | 338° |
| 2026-05-07 22:52 | 31.26352 | -72.78020 | 40001 ft | 403 kts | 338° |
| 2026-05-07 22:52 | 31.31773 | -72.79673 | 40009 ft | 404 kts | 338° |
| 2026-05-07 22:53 | 31.37236 | -72.81341 | 40002 ft | 404 kts | 338° |
| 2026-05-07 22:53 | 31.42688 | -72.83008 | 40003 ft | 406 kts | 338° |
| 2026-05-07 22:54 | 31.48125 | -72.84671 | 40003 ft | 406 kts | 338° |
| 2026-05-07 22:54 | 31.53630 | -72.86359 | 40003 ft | 408 kts | 338° |
| 2026-05-07 22:55 | 31.59123 | -72.88044 | 39993 ft | 409 kts | 338° |
| 2026-05-07 22:55 | 31.64598 | -72.89726 | 39998 ft | 407 kts | 338° |
| 2026-05-07 22:56 | 31.70071 | -72.91409 | 39996 ft | 407 kts | 338° |
| 2026-05-07 22:56 | 31.75535 | -72.93092 | 39997 ft | 407 kts | 338° |
| 2026-05-07 22:57 | 31.81022 | -72.94783 | 39994 ft | 410 kts | 338° |
| 2026-05-07 22:57 | 31.86518 | -72.96479 | 39994 ft | 410 kts | 338° |
| 2026-05-07 22:58 | 31.92046 | -72.98188 | 39988 ft | 410 kts | 338° |
| 2026-05-07 22:58 | 31.97550 | -72.99891 | 39989 ft | 409 kts | 338° |
| 2026-05-07 22:59 | 32.03062 | -73.01599 | 39985 ft | 410 kts | 338° |
| 2026-05-07 22:59 | 32.08585 | -73.03312 | 39988 ft | 411 kts | 338° |
| 2026-05-07 23:00 | 32.14102 | -73.05026 | 39987 ft | 409 kts | 338° |
| 2026-05-07 23:00 | 32.19574 | -73.06728 | 39988 ft | 410 kts | 337° |
| 2026-05-07 23:01 | 32.25088 | -73.08444 | 39980 ft | 408 kts | 338° |
| 2026-05-07 23:01 | 32.30592 | -73.10160 | 39973 ft | 405 kts | 337° |
| 2026-05-07 23:02 | 32.36054 | -73.11866 | 39976 ft | 409 kts | 337° |
| 2026-05-07 23:02 | 32.41515 | -73.13572 | 39963 ft | 405 kts | 337° |
| 2026-05-07 23:03 | 32.47020 | -73.15295 | 39966 ft | 406 kts | 337° |
| 2026-05-07 23:03 | 32.52478 | -73.17005 | 39958 ft | 406 kts | 336° |
| 2026-05-07 23:04 | 32.57910 | -73.18710 | 39948 ft | 407 kts | 336° |
| 2026-05-07 23:04 | 32.63408 | -73.20437 | 39951 ft | 405 kts | 336° |
| 2026-05-07 23:05 | 32.68871 | -73.22155 | 39939 ft | 404 kts | 336° |
| 2026-05-07 23:05 | 32.74292 | -73.23862 | 39933 ft | 404 kts | 336° |
| 2026-05-07 23:06 | 32.79747 | -73.25584 | 39935 ft | 404 kts | 336° |
| 2026-05-07 23:06 | 32.85171 | -73.27296 | 39930 ft | 406 kts | 335° |
| 2026-05-07 23:07 | 32.90633 | -73.29022 | 39932 ft | 403 kts | 336° |
| 2026-05-07 23:07 | 32.96029 | -73.30730 | 39913 ft | 404 kts | 335° |
| 2026-05-07 23:08 | 33.01448 | -73.32449 | 39921 ft | 403 kts | 336° |
| 2026-05-07 23:08 | 33.06891 | -73.34176 | 39917 ft | 403 kts | 335° |
| 2026-05-07 23:09 | 33.12302 | -73.35895 | 39921 ft | 404 kts | 335° |
| 2026-05-07 23:09 | 33.17777 | -73.37638 | 39920 ft | 407 kts | 335° |
| 2026-05-07 23:10 | 33.23197 | -73.39365 | 39922 ft | 405 kts | 335° |
| 2026-05-07 23:10 | 33.28682 | -73.41113 | 39904 ft | 405 kts | 335° |
| 2026-05-07 23:11 | 33.34121 | -73.42851 | 39905 ft | 406 kts | 335° |
| 2026-05-07 23:11 | 33.39621 | -73.44611 | 39900 ft | 410 kts | 335° |
| 2026-05-07 23:12 | 33.45098 | -73.46364 | 39901 ft | 407 kts | 334° |
| 2026-05-07 23:12 | 33.50586 | -73.48126 | 39895 ft | 409 kts | 335° |
| 2026-05-07 23:13 | 33.56055 | -73.49882 | 39893 ft | 410 kts | 335° |
| 2026-05-07 23:13 | 33.61575 | -73.51656 | 39884 ft | 408 kts | 335° |
| 2026-05-07 23:14 | 33.67064 | -73.53423 | 39885 ft | 407 kts | 334° |
| 2026-05-07 23:14 | 33.72542 | -73.55190 | 39888 ft | 410 kts | 335° |
| 2026-05-07 23:15 | 33.78036 | -73.56963 | 39877 ft | 413 kts | 334° |
| 2026-05-07 23:15 | 33.83551 | -73.58745 | 39875 ft | 408 kts | 334° |
| 2026-05-07 23:16 | 33.89042 | -73.60523 | 39869 ft | 410 kts | 334° |
| 2026-05-07 23:16 | 33.94556 | -73.62310 | 39861 ft | 412 kts | 334° |
| 2026-05-07 23:17 | 34.00093 | -73.64107 | 39864 ft | 411 kts | 334° |
| 2026-05-07 23:17 | 34.05620 | -73.65904 | 39876 ft | 413 kts | 333° |
| 2026-05-07 23:18 | 34.11147 | -73.67701 | 39871 ft | 411 kts | 333° |
| 2026-05-07 23:18 | 34.16639 | -73.69491 | 39871 ft | 411 kts | 332° |
| 2026-05-07 23:19 | 34.22205 | -73.71307 | 39870 ft | 411 kts | 333° |
| 2026-05-07 23:19 | 34.27687 | -73.73096 | 39865 ft | 409 kts | 332° |
| 2026-05-07 23:20 | 34.33175 | -73.74927 | 39860 ft | 404 kts | 329° |
| 2026-05-07 23:20 | 34.35663 | -73.76253 | 39878 ft | 388 kts | 319° |
| 2026-05-07 23:20 | 34.37861 | -73.78050 | 39872 ft | 378 kts | 309° |
| 2026-05-07 23:20 | 34.39730 | -73.80196 | 39878 ft | 367 kts | 305° |
| 2026-05-07 23:21 | 34.41535 | -73.82403 | 39873 ft | 369 kts | 305° |
| 2026-05-07 23:21 | 34.45141 | -73.86844 | 39863 ft | 370 kts | 305° |
| 2026-05-07 23:22 | 34.48725 | -73.91273 | 39857 ft | 368 kts | 305° |
| 2026-05-07 23:22 | 34.52288 | -73.95679 | 39850 ft | 367 kts | 304° |
| 2026-05-07 23:23 | 34.55867 | -74.00115 | 39848 ft | 370 kts | 305° |
| 2026-05-07 23:23 | 34.59425 | -74.04528 | 39844 ft | 367 kts | 304° |
| 2026-05-07 23:24 | 34.63008 | -74.08978 | 39846 ft | 366 kts | 304° |
| 2026-05-07 23:24 | 34.66542 | -74.13375 | 39841 ft | 369 kts | 304° |
| 2026-05-07 23:25 | 34.70083 | -74.17783 | 39833 ft | 363 kts | 304° |
| 2026-05-07 23:25 | 34.73596 | -74.22164 | 39827 ft | 364 kts | 303° |
| 2026-05-07 23:26 | 34.77146 | -74.26598 | 39821 ft | 368 kts | 303° |
| 2026-05-07 23:26 | 34.80703 | -74.31043 | 39824 ft | 365 kts | 304° |
| 2026-05-07 23:27 | 34.86004 | -74.37684 | 39823 ft | 366 kts | 304° |
| 2026-05-07 23:27 | 34.89502 | -74.42071 | 39814 ft | 365 kts | 303° |
| 2026-05-07 23:28 | 34.93026 | -74.46497 | 39813 ft | 365 kts | 304° |
| 2026-05-07 23:28 | 34.96545 | -74.50923 | 39809 ft | 364 kts | 304° |
| 2026-05-07 23:29 | 35.00038 | -74.55321 | 39808 ft | 365 kts | 303° |
| 2026-05-07 23:29 | 35.03581 | -74.59790 | 39806 ft | 368 kts | 303° |
| 2026-05-07 23:30 | 35.07100 | -74.64233 | 39809 ft | 365 kts | 303° |
| 2026-05-07 23:30 | 35.10643 | -74.68711 | 39827 ft | 362 kts | 303° |
| 2026-05-07 23:31 | 35.14126 | -74.73122 | 39832 ft | 362 kts | 303° |
| 2026-05-07 23:31 | 35.17626 | -74.77558 | 39830 ft | 362 kts | 303° |
| 2026-05-07 23:32 | 35.21115 | -74.81987 | 39834 ft | 362 kts | 303° |
| 2026-05-07 23:32 | 35.24633 | -74.86459 | 39840 ft | 364 kts | 303° |
| 2026-05-07 23:33 | 35.28113 | -74.90887 | 39854 ft | 361 kts | 303° |
| 2026-05-07 23:33 | 35.31617 | -74.95355 | 39854 ft | 365 kts | 302° |
| 2026-05-07 23:34 | 35.35123 | -74.99828 | 39848 ft | 364 kts | 302° |
| 2026-05-07 23:34 | 35.38641 | -75.04324 | 39854 ft | 365 kts | 303° |
| 2026-05-07 23:35 | 35.42121 | -75.08778 | 39846 ft | 363 kts | 303° |
| 2026-05-07 23:35 | 35.45601 | -75.13236 | 39840 ft | 363 kts | 303° |
| 2026-05-07 23:36 | 35.49094 | -75.17717 | 39838 ft | 365 kts | 302° |
| 2026-05-07 23:36 | 35.52584 | -75.22199 | 39841 ft | 362 kts | 302° |
| 2026-05-07 23:37 | 35.56067 | -75.26681 | 39843 ft | 361 kts | 302° |
| 2026-05-07 23:37 | 35.59535 | -75.31152 | 39846 ft | 366 kts | 302° |
| 2026-05-07 23:38 | 35.63035 | -75.35665 | 39847 ft | 361 kts | 302° |
| 2026-05-07 23:38 | 35.66497 | -75.40139 | 39852 ft | 364 kts | 303° |
| 2026-05-07 23:39 | 35.69976 | -75.44638 | 39857 ft | 365 kts | 302° |
| 2026-05-07 23:39 | 35.73434 | -75.49116 | 39859 ft | 361 kts | 302° |
| 2026-05-07 23:40 | 35.76908 | -75.53622 | 39870 ft | 363 kts | 302° |
| 2026-05-07 23:40 | 35.80352 | -75.58095 | 39860 ft | 363 kts | 302° |
| 2026-05-07 23:41 | 35.83816 | -75.62601 | 39864 ft | 361 kts | 302° |
| 2026-05-07 23:41 | 35.87264 | -75.67087 | 39892 ft | 363 kts | 302° |
| 2026-05-07 23:42 | 35.90723 | -75.71590 | 39896 ft | 363 kts | 301° |
| 2026-05-07 23:42 | 35.94196 | -75.76118 | 39899 ft | 364 kts | 302° |
| 2026-05-07 23:43 | 35.97646 | -75.80621 | 39902 ft | 362 kts | 302° |
| 2026-05-07 23:43 | 36.01086 | -75.85117 | 39886 ft | 362 kts | 301° |
| 2026-05-07 23:44 | 36.04535 | -75.89634 | 39883 ft | 361 kts | 302° |
| 2026-05-07 23:44 | 36.07975 | -75.94143 | 39893 ft | 363 kts | 302° |
| 2026-05-07 23:45 | 36.11411 | -75.98653 | 39895 ft | 360 kts | 302° |
| 2026-05-07 23:45 | 36.14855 | -76.03178 | 39900 ft | 359 kts | 301° |
| 2026-05-07 23:46 | 36.18259 | -76.07660 | 39903 ft | 361 kts | 302° |
| 2026-05-07 23:46 | 36.21694 | -76.12185 | 39907 ft | 357 kts | 302° |
| 2026-05-07 23:47 | 36.25202 | -76.16592 | 39901 ft | 370 kts | 309° |
| 2026-05-07 23:47 | 36.27373 | -76.18359 | 39915 ft | 389 kts | 318° |
| 2026-05-07 23:47 | 36.29944 | -76.19694 | 39918 ft | 407 kts | 327° |
| 2026-05-07 23:48 | 36.35249 | -76.21986 | 39906 ft | 399 kts | 325° |
| 2026-05-07 23:48 | 36.40447 | -76.24390 | 39910 ft | 400 kts | 324° |
| 2026-05-07 23:49 | 36.45641 | -76.26809 | 39907 ft | 398 kts | 324° |
| 2026-05-07 23:49 | 36.50840 | -76.29240 | 39911 ft | 403 kts | 324° |
| 2026-05-07 23:50 | 36.56096 | -76.31696 | 39912 ft | 399 kts | 324° |
| 2026-05-07 23:50 | 36.61279 | -76.34126 | 39914 ft | 402 kts | 324° |
| 2026-05-07 23:51 | 36.66500 | -76.36573 | 39911 ft | 398 kts | 324° |
| 2026-05-07 23:51 | 36.71682 | -76.39009 | 39912 ft | 399 kts | 324° |
| 2026-05-07 23:52 | 36.76868 | -76.41448 | 39914 ft | 398 kts | 324° |
| 2026-05-07 23:52 | 36.82085 | -76.43906 | 39906 ft | 400 kts | 324° |
| 2026-05-07 23:53 | 36.87263 | -76.46350 | 39907 ft | 400 kts | 324° |
| 2026-05-07 23:53 | 36.92454 | -76.48804 | 39905 ft | 397 kts | 324° |
| 2026-05-07 23:54 | 36.97654 | -76.51265 | 39904 ft | 400 kts | 324° |
| 2026-05-07 23:54 | 37.02808 | -76.53708 | 39897 ft | 400 kts | 324° |
| 2026-05-07 23:55 | 37.08019 | -76.56179 | 39900 ft | 399 kts | 324° |
| 2026-05-07 23:55 | 37.13176 | -76.58630 | 39899 ft | 398 kts | 324° |
| 2026-05-07 23:56 | 37.18370 | -76.61105 | 39892 ft | 402 kts | 324° |
| 2026-05-07 23:56 | 37.23582 | -76.63589 | 39900 ft | 400 kts | 324° |
| 2026-05-07 23:57 | 37.28801 | -76.66080 | 39922 ft | 400 kts | 324° |
| 2026-05-07 23:57 | 37.33996 | -76.68565 | 39914 ft | 405 kts | 324° |
| 2026-05-07 23:58 | 37.39264 | -76.71086 | 39922 ft | 403 kts | 324° |
| 2026-05-07 23:58 | 37.44507 | -76.73602 | 39916 ft | 408 kts | 324° |
| 2026-05-07 23:59 | 37.49813 | -76.76148 | 39901 ft | 406 kts | 324° |
| 2026-05-07 23:59 | 37.55083 | -76.78683 | 39910 ft | 406 kts | 324° |
| 2026-05-08 00:00 | 37.60360 | -76.81227 | 39934 ft | 408 kts | 324° |
| 2026-05-08 00:00 | 37.65628 | -76.83769 | 39918 ft | 410 kts | 324° |
| 2026-05-08 00:01 | 37.70941 | -76.86334 | 39915 ft | 405 kts | 324° |
| 2026-05-08 00:01 | 37.76218 | -76.88889 | 39913 ft | 405 kts | 324° |
| 2026-05-08 00:02 | 37.81524 | -76.91461 | 39927 ft | 412 kts | 324° |
| 2026-05-08 00:02 | 37.86865 | -76.94053 | 39925 ft | 409 kts | 325° |
| 2026-05-08 00:03 | 37.92205 | -76.96650 | 39914 ft | 411 kts | 325° |
| 2026-05-08 00:03 | 37.97557 | -76.99257 | 39919 ft | 413 kts | 325° |
| 2026-05-08 00:04 | 38.02918 | -77.01872 | 39923 ft | 416 kts | 325° |
| 2026-05-08 00:04 | 38.08284 | -77.04492 | 39922 ft | 416 kts | 325° |
| 2026-05-08 00:05 | 38.13708 | -77.07147 | 39922 ft | 415 kts | 326° |
| 2026-05-08 00:05 | 38.19080 | -77.09779 | 39915 ft | 416 kts | 325° |
| 2026-05-08 00:06 | 38.24450 | -77.12416 | 39909 ft | 417 kts | 326° |
| 2026-05-08 00:06 | 38.29852 | -77.15070 | 39909 ft | 416 kts | 326° |
| 2026-05-08 00:07 | 38.35229 | -77.17718 | 39903 ft | 416 kts | 326° |
| 2026-05-08 00:07 | 38.40619 | -77.20376 | 39901 ft | 417 kts | 326° |
| 2026-05-08 00:08 | 38.46012 | -77.23040 | 39908 ft | 415 kts | 326° |
| 2026-05-08 00:08 | 38.51418 | -77.25716 | 39898 ft | 418 kts | 326° |
| 2026-05-08 00:09 | 38.56843 | -77.28403 | 39894 ft | 416 kts | 327° |
| 2026-05-08 00:09 | 38.62199 | -77.31062 | 39893 ft | 414 kts | 326° |
| 2026-05-08 00:10 | 38.67579 | -77.33737 | 39890 ft | 417 kts | 327° |
| 2026-05-08 00:10 | 38.72977 | -77.36425 | 39890 ft | 415 kts | 327° |
| 2026-05-08 00:11 | 38.78346 | -77.39104 | 39884 ft | 417 kts | 327° |
| 2026-05-08 00:11 | 38.83766 | -77.41811 | 39886 ft | 416 kts | 327° |
| 2026-05-08 00:12 | 38.89138 | -77.44499 | 39882 ft | 418 kts | 327° |
| 2026-05-08 00:12 | 38.94629 | -77.47002 | 39881 ft | 430 kts | 335° |
| 2026-05-08 00:13 | 39.00544 | -77.48500 | 39878 ft | 434 kts | 337° |
| 2026-05-08 00:13 | 39.06484 | -77.50031 | 39883 ft | 435 kts | 337° |
| 2026-05-08 00:14 | 39.12353 | -77.51551 | 39876 ft | 433 kts | 336° |
| 2026-05-08 00:14 | 39.18243 | -77.53078 | 39872 ft | 434 kts | 336° |
| 2026-05-08 00:15 | 39.24166 | -77.54617 | 39871 ft | 434 kts | 336° |
| 2026-05-08 00:15 | 39.30094 | -77.56160 | 39856 ft | 435 kts | 337° |
| 2026-05-08 00:16 | 39.36040 | -77.57711 | 39883 ft | 435 kts | 337° |
| 2026-05-08 00:16 | 39.41886 | -77.59238 | 39870 ft | 435 kts | 336° |
| 2026-05-08 00:17 | 39.47824 | -77.60792 | 39886 ft | 437 kts | 336° |
| 2026-05-08 00:17 | 39.53708 | -77.62332 | 39876 ft | 433 kts | 336° |
| 2026-05-08 00:18 | 39.59617 | -77.63885 | 39882 ft | 433 kts | 336° |
| 2026-05-08 00:18 | 39.65533 | -77.65440 | 39893 ft | 436 kts | 336° |
| 2026-05-08 00:19 | 39.71465 | -77.67004 | 39897 ft | 435 kts | 336° |
| 2026-05-08 00:19 | 39.77384 | -77.68565 | 39900 ft | 432 kts | 336° |
| 2026-05-08 00:20 | 39.83276 | -77.70125 | 39897 ft | 435 kts | 336° |
| 2026-05-08 00:20 | 39.89172 | -77.71685 | 39902 ft | 435 kts | 336° |
| 2026-05-08 00:21 | 39.95104 | -77.73258 | 39891 ft | 435 kts | 336° |
| 2026-05-08 00:21 | 40.00994 | -77.74823 | 39892 ft | 432 kts | 336° |
| 2026-05-08 00:22 | 40.06939 | -77.76408 | 39909 ft | 436 kts | 336° |
| 2026-05-08 00:22 | 40.12820 | -77.77976 | 39901 ft | 436 kts | 336° |
| 2026-05-08 00:23 | 40.18759 | -77.79564 | 39898 ft | 437 kts | 336° |
| 2026-05-08 00:23 | 40.24669 | -77.81145 | 39891 ft | 436 kts | 336° |
| 2026-05-08 00:24 | 40.30582 | -77.82731 | 39898 ft | 435 kts | 336° |
| 2026-05-08 00:24 | 40.36525 | -77.84327 | 39894 ft | 436 kts | 336° |
| 2026-05-08 00:25 | 40.42477 | -77.85928 | 39906 ft | 435 kts | 336° |
| 2026-05-08 00:25 | 40.48418 | -77.87531 | 39917 ft | 437 kts | 336° |
| 2026-05-08 00:26 | 40.54356 | -77.89133 | 39910 ft | 436 kts | 336° |
| 2026-05-08 00:26 | 40.60274 | -77.90736 | 39905 ft | 437 kts | 336° |
| 2026-05-08 00:27 | 40.66257 | -77.92358 | 39909 ft | 439 kts | 336° |
| 2026-05-08 00:27 | 40.72224 | -77.93978 | 39912 ft | 439 kts | 336° |
| 2026-05-08 00:28 | 40.78198 | -77.95602 | 39900 ft | 435 kts | 336° |
| 2026-05-08 00:28 | 40.84155 | -77.97228 | 39913 ft | 440 kts | 336° |
| 2026-05-08 00:29 | 40.90130 | -77.98859 | 39912 ft | 440 kts | 336° |
| 2026-05-08 00:29 | 40.96006 | -78.00823 | 39910 ft | 434 kts | 333° |
| 2026-05-08 00:30 | 41.01791 | -78.02914 | 39912 ft | 435 kts | 333° |
| 2026-05-08 00:30 | 41.07624 | -78.05013 | 39897 ft | 433 kts | 333° |
| 2026-05-08 00:31 | 41.13440 | -78.07091 | 39900 ft | 435 kts | 334° |
| 2026-05-08 00:31 | 41.19281 | -78.09171 | 39903 ft | 434 kts | 334° |
| 2026-05-08 00:32 | 41.25108 | -78.11236 | 39893 ft | 435 kts | 334° |
| 2026-05-08 00:32 | 41.30991 | -78.13310 | 39876 ft | 437 kts | 334° |
| 2026-05-08 00:33 | 41.36875 | -78.15382 | 39878 ft | 438 kts | 334° |
| 2026-05-08 00:33 | 41.42674 | -78.17390 | 39872 ft | 423 kts | 335° |
| 2026-05-08 00:34 | 41.48336 | -78.19453 | 39888 ft | 425 kts | 334° |
| 2026-05-08 00:34 | 41.54018 | -78.21551 | 39895 ft | 428 kts | 334° |
| 2026-05-08 00:35 | 41.59736 | -78.23651 | 39890 ft | 426 kts | 334° |
| 2026-05-08 00:35 | 41.65448 | -78.25753 | 39884 ft | 428 kts | 334° |
| 2026-05-08 00:36 | 41.71225 | -78.27883 | 39451 ft | 430 kts | 334° |
| 2026-05-08 00:36 | 41.74077 | -78.28934 | 39030 ft | 427 kts | 334° |
| 2026-05-08 00:36 | 41.76930 | -78.29990 | 38626 ft | 425 kts | 334° |
| 2026-05-08 00:37 | 41.79765 | -78.31038 | 38199 ft | 424 kts | 334° |
| 2026-05-08 00:37 | 41.82629 | -78.32099 | 37798 ft | 425 kts | 335° |
| 2026-05-08 00:37 | 41.85446 | -78.33143 | 37428 ft | 428 kts | 334° |
| 2026-05-08 00:38 | 41.91159 | -78.35262 | 36383 ft | 426 kts | 334° |
| 2026-05-08 00:38 | 41.93992 | -78.36314 | 35833 ft | 422 kts | 334° |
| 2026-05-08 00:38 | 41.96789 | -78.37354 | 35294 ft | 421 kts | 334° |
| 2026-05-08 00:38 | 41.99614 | -78.38406 | 34747 ft | 419 kts | 334° |
| 2026-05-08 00:39 | 42.02431 | -78.39455 | 34195 ft | 417 kts | 333° |
| 2026-05-08 00:39 | 42.05232 | -78.40501 | 33651 ft | 420 kts | 334° |
| 2026-05-08 00:39 | 42.08030 | -78.41547 | 33120 ft | 420 kts | 334° |
| 2026-05-08 00:39 | 42.10829 | -78.42592 | 32636 ft | 420 kts | 333° |
| 2026-05-08 00:40 | 42.13626 | -78.43636 | 32147 ft | 419 kts | 333° |
| 2026-05-08 00:40 | 42.16434 | -78.44689 | 31651 ft | 423 kts | 333° |
| 2026-05-08 00:40 | 42.19265 | -78.45749 | 31153 ft | 423 kts | 332° |
| 2026-05-08 00:40 | 42.22099 | -78.46810 | 30643 ft | 421 kts | 332° |
| 2026-05-08 00:41 | 42.24908 | -78.47865 | 30129 ft | 418 kts | 332° |
| 2026-05-08 00:41 | 42.27669 | -78.48902 | 29628 ft | 415 kts | 332° |
| 2026-05-08 00:41 | 42.30436 | -78.49944 | 29151 ft | 411 kts | 333° |
| 2026-05-08 00:41 | 42.33151 | -78.50966 | 28679 ft | 408 kts | 333° |
| 2026-05-08 00:42 | 42.35901 | -78.52003 | 28190 ft | 406 kts | 334° |
| 2026-05-08 00:42 | 42.38577 | -78.53011 | 27665 ft | 404 kts | 334° |
| 2026-05-08 00:42 | 42.41302 | -78.54040 | 27120 ft | 403 kts | 335° |
| 2026-05-08 00:42 | 42.43973 | -78.55048 | 26574 ft | 398 kts | 335° |
| 2026-05-08 00:43 | 42.46617 | -78.56049 | 26032 ft | 396 kts | 336° |
| 2026-05-08 00:43 | 42.49265 | -78.57050 | 25437 ft | 392 kts | 336° |
| 2026-05-08 00:43 | 42.51849 | -78.58029 | 24860 ft | 390 kts | 336° |
| 2026-05-08 00:43 | 42.54462 | -78.59019 | 24263 ft | 386 kts | 337° |
| 2026-05-08 00:44 | 42.57027 | -78.59992 | 23657 ft | 383 kts | 338° |
| 2026-05-08 00:44 | 42.59554 | -78.60952 | 23045 ft | 379 kts | 338° |
| 2026-05-08 00:44 | 42.62087 | -78.61914 | 22404 ft | 375 kts | 338° |
| 2026-05-08 00:44 | 42.64571 | -78.62859 | 21768 ft | 371 kts | 338° |
| 2026-05-08 00:45 | 42.67027 | -78.63794 | 21138 ft | 368 kts | 338° |
| 2026-05-08 00:45 | 42.69483 | -78.64729 | 20513 ft | 364 kts | 339° |
| 2026-05-08 00:45 | 42.71906 | -78.65654 | 19868 ft | 360 kts | 338° |
| 2026-05-08 00:45 | 42.74295 | -78.66565 | 19243 ft | 356 kts | 339° |
| 2026-05-08 00:46 | 42.76639 | -78.67460 | 18621 ft | 352 kts | 339° |
| 2026-05-08 00:46 | 42.78976 | -78.68354 | 17973 ft | 348 kts | 339° |
| 2026-05-08 00:46 | 42.81295 | -78.69240 | 17328 ft | 346 kts | 339° |
| 2026-05-08 00:46 | 42.83602 | -78.70123 | 16999 ft | 339 kts | 339° |
| 2026-05-08 00:47 | 42.85824 | -78.70972 | 16925 ft | 322 kts | 339° |
| 2026-05-08 00:47 | 42.88004 | -78.71812 | 16945 ft | 342 kts | 339° |
| 2026-05-08 00:47 | 42.90355 | -78.72716 | 17521 ft | 359 kts | 340° |
| 2026-05-08 00:47 | 42.92660 | -78.73794 | 17268 ft | 336 kts | 325° |
| 2026-05-08 00:48 | 42.94390 | -78.75825 | 17304 ft | 327 kts | 309° |
| 2026-05-08 00:48 | 42.95902 | -78.78154 | 17291 ft | 330 kts | 307° |
| 2026-05-08 00:48 | 42.97389 | -78.80547 | 17245 ft | 333 kts | 307° |
| 2026-05-08 00:48 | 42.98862 | -78.82961 | 16843 ft | 332 kts | 307° |
| 2026-05-08 00:49 | 43.00314 | -78.85359 | 16446 ft | 328 kts | 307° |
| 2026-05-08 00:49 | 43.01776 | -78.87781 | 16042 ft | 327 kts | 307° |
| 2026-05-08 00:49 | 43.03209 | -78.90161 | 15646 ft | 325 kts | 307° |
| 2026-05-08 00:49 | 43.04636 | -78.92532 | 15254 ft | 324 kts | 307° |
| 2026-05-08 00:50 | 43.06062 | -78.94905 | 14856 ft | 322 kts | 307° |
| 2026-05-08 00:50 | 43.07473 | -78.97256 | 14461 ft | 322 kts | 307° |
| 2026-05-08 00:50 | 43.08890 | -78.99616 | 14065 ft | 319 kts | 307° |
| 2026-05-08 00:50 | 43.10296 | -79.01963 | 13667 ft | 318 kts | 307° |
| 2026-05-08 00:51 | 43.11679 | -79.04270 | 13278 ft | 316 kts | 307° |
| 2026-05-08 00:51 | 43.13075 | -79.06603 | 12880 ft | 315 kts | 307° |
| 2026-05-08 00:51 | 43.14457 | -79.08912 | 12489 ft | 314 kts | 307° |
| 2026-05-08 00:51 | 43.15837 | -79.11219 | 12095 ft | 312 kts | 307° |
| 2026-05-08 00:52 | 43.17194 | -79.13489 | 11704 ft | 309 kts | 307° |
| 2026-05-08 00:52 | 43.18533 | -79.15731 | 11308 ft | 302 kts | 307° |
| 2026-05-08 00:52 | 43.19836 | -79.17914 | 11006 ft | 291 kts | 307° |
| 2026-05-08 00:52 | 43.21095 | -79.20023 | 10971 ft | 275 kts | 306° |
| 2026-05-08 00:53 | 43.22270 | -79.21995 | 10968 ft | 267 kts | 306° |
| 2026-05-08 00:53 | 43.23443 | -79.23967 | 10983 ft | 268 kts | 306° |
| 2026-05-08 00:53 | 43.24631 | -79.25965 | 10986 ft | 270 kts | 306° |
| 2026-05-08 00:53 | 43.25821 | -79.27966 | 10985 ft | 271 kts | 306° |
| 2026-05-08 00:54 | 43.27002 | -79.29953 | 10985 ft | 271 kts | 306° |
| 2026-05-08 00:54 | 43.28209 | -79.31985 | 10987 ft | 271 kts | 306° |
| 2026-05-08 00:54 | 43.29429 | -79.33918 | 10986 ft | 272 kts | 312° |
| 2026-05-08 00:54 | 43.30917 | -79.35537 | 10984 ft | 280 kts | 333° |
| 2026-05-08 00:55 | 43.32853 | -79.35961 | 11009 ft | 289 kts | 356° |
| 2026-05-08 00:55 | 43.34891 | -79.35880 | 10830 ft | 293 kts | 357° |
| 2026-05-08 00:55 | 43.36881 | -79.35792 | 10168 ft | 280 kts | 357° |
| 2026-05-08 00:55 | 43.38766 | -79.35702 | 9576 ft | 264 kts | 357° |
| 2026-05-08 00:56 | 43.40546 | -79.35611 | 9011 ft | 252 kts | 357° |
| 2026-05-08 00:56 | 43.42216 | -79.35518 | 9010 ft | 234 kts | 357° |
| 2026-05-08 00:56 | 43.43866 | -79.35418 | 8458 ft | 243 kts | 357° |
| 2026-05-08 00:56 | 43.45539 | -79.35332 | 7673 ft | 244 kts | 358° |
| 2026-05-08 00:57 | 43.47223 | -79.35259 | 6902 ft | 244 kts | 357° |
| 2026-05-08 00:57 | 43.48912 | -79.35198 | 6124 ft | 244 kts | 357° |
| 2026-05-08 00:57 | 43.50595 | -79.35152 | 5323 ft | 243 kts | 357° |
| 2026-05-08 00:57 | 43.52262 | -79.35128 | 4536 ft | 241 kts | 357° |
| 2026-05-08 00:58 | 43.53917 | -79.35126 | 4130 ft | 229 kts | 357° |
| 2026-05-08 00:58 | 43.55452 | -79.35122 | 4046 ft | 215 kts | 357° |
| 2026-05-08 00:58 | 43.56924 | -79.35111 | 4075 ft | 209 kts | 357° |
| 2026-05-08 00:58 | 43.58396 | -79.35092 | 4076 ft | 212 kts | 357° |
| 2026-05-08 00:59 | 43.59858 | -79.35075 | 4048 ft | 212 kts | 357° |
| 2026-05-08 00:59 | 43.61342 | -79.35060 | 4043 ft | 213 kts | 357° |
| 2026-05-08 00:59 | 43.62825 | -79.35020 | 4038 ft | 213 kts | 0° |
| 2026-05-08 00:59 | 43.64305 | -79.35164 | 4040 ft | 212 kts | 356° |
| 2026-05-08 01:00 | 43.65788 | -79.35204 | 4043 ft | 213 kts | 356° |
| 2026-05-08 01:00 | 43.67259 | -79.35237 | 4040 ft | 213 kts | 356° |
| 2026-05-08 01:00 | 43.68738 | -79.35273 | 4039 ft | 214 kts | 356° |
| 2026-05-08 01:00 | 43.70234 | -79.35188 | 4023 ft | 217 kts | 12° |
| 2026-05-08 01:01 | 43.71579 | -79.34222 | 4050 ft | 220 kts | 26° |
| 2026-05-08 01:01 | 43.72906 | -79.33145 | 4037 ft | 221 kts | 32° |
| 2026-05-08 01:01 | 43.74284 | -79.32365 | 4023 ft | 213 kts | 358° |
| 2026-05-08 01:01 | 43.75643 | -79.32970 | 3811 ft | 205 kts | 324° |
| 2026-05-08 01:02 | 43.76743 | -79.34169 | 3537 ft | 197 kts | 320° |
| 2026-05-08 01:02 | 43.77765 | -79.35365 | 3256 ft | 191 kts | 316° |
| 2026-05-08 01:02 | 43.78280 | -79.36972 | 3054 ft | 181 kts | 271° |
| 2026-05-08 01:02 | 43.78061 | -79.38628 | 3050 ft | 175 kts | 259° |
| 2026-05-08 01:03 | 43.77448 | -79.40095 | 3040 ft | 182 kts | 230° |
| 2026-05-08 01:03 | 43.76373 | -79.41086 | 3042 ft | 188 kts | 208° |
| 2026-05-08 01:03 | 43.75451 | -79.42273 | 3127 ft | 182 kts | 242° |
| 2026-05-08 01:03 | 43.74667 | -79.43664 | 3308 ft | 184 kts | 232° |
| 2026-05-08 01:04 | 43.73851 | -79.44972 | 4015 ft | 184 kts | 235° |
| 2026-05-08 01:04 | 43.73036 | -79.46352 | 4218 ft | 186 kts | 231° |
| 2026-05-08 01:04 | 43.72113 | -79.47617 | 4210 ft | 187 kts | 230° |
| 2026-05-08 01:04 | 43.71145 | -79.48811 | 4083 ft | 189 kts | 214° |
| 2026-05-08 01:05 | 43.69884 | -79.49289 | 4115 ft | 194 kts | 188° |
| 2026-05-08 01:05 | 43.68537 | -79.48961 | 4023 ft | 199 kts | 161° |
| 2026-05-08 01:05 | 43.67401 | -79.47875 | 4071 ft | 201 kts | 136° |
| 2026-05-08 01:05 | 43.66713 | -79.46198 | 4037 ft | 201 kts | 103° |
| 2026-05-08 01:06 | 43.66870 | -79.44343 | 4025 ft | 196 kts | 64° |
| 2026-05-08 01:06 | 43.67648 | -79.42815 | 4127 ft | 193 kts | 50° |
| 2026-05-08 01:06 | 43.68461 | -79.41344 | 4135 ft | 195 kts | 49° |
| 2026-05-08 01:06 | 43.69300 | -79.39866 | 4007 ft | 194 kts | 47° |
| 2026-05-08 01:07 | 43.70143 | -79.38393 | 3981 ft | 193 kts | 49° |
| 2026-05-08 01:07 | 43.70966 | -79.36919 | 4009 ft | 193 kts | 49° |
| 2026-05-08 01:07 | 43.71783 | -79.35463 | 4065 ft | 193 kts | 48° |
| 2026-05-08 01:07 | 43.72630 | -79.34000 | 4104 ft | 195 kts | 48° |
| 2026-05-08 01:08 | 43.73439 | -79.32507 | 4052 ft | 195 kts | 50° |
| 2026-05-08 01:08 | 43.74245 | -79.31004 | 4044 ft | 194 kts | 50° |
| 2026-05-08 01:08 | 43.75040 | -79.29525 | 4022 ft | 194 kts | 50° |
| 2026-05-08 01:08 | 43.76017 | -79.28285 | 3744 ft | 191 kts | 26° |
| 2026-05-08 01:09 | 43.77240 | -79.27734 | 3374 ft | 181 kts | 2° |
| 2026-05-08 01:09 | 43.78396 | -79.28164 | 3213 ft | 171 kts | 325° |
| 2026-05-08 01:09 | 43.79112 | -79.29455 | 3256 ft | 174 kts | 288° |
| 2026-05-08 01:09 | 43.79044 | -79.31135 | 3313 ft | 179 kts | 257° |
| 2026-05-08 01:10 | 43.78692 | -79.32801 | 3540 ft | 194 kts | 257° |
| 2026-05-08 01:10 | 43.78373 | -79.34515 | 3601 ft | 178 kts | 263° |
| 2026-05-08 01:10 | 43.78398 | -79.36182 | 3481 ft | 177 kts | 277° |
| 2026-05-08 01:10 | 43.78543 | -79.37924 | 3255 ft | 190 kts | 280° |
| 2026-05-08 01:11 | 43.78644 | -79.39660 | 3285 ft | 172 kts | 264° |
| 2026-05-08 01:11 | 43.78194 | -79.41104 | 3245 ft | 158 kts | 246° |
| 2026-05-08 01:11 | 43.77753 | -79.42413 | 3255 ft | 145 kts | 250° |
| 2026-05-08 01:11 | 43.77346 | -79.43655 | 3150 ft | 133 kts | 249° |
| 2026-05-08 01:12 | 43.76940 | -79.44746 | 2971 ft | 125 kts | 246° |
| 2026-05-08 01:12 | 43.76510 | -79.45776 | 2734 ft | 127 kts | 245° |
| 2026-05-08 01:12 | 43.76055 | -79.46813 | 2600 ft | 127 kts | 242° |
| 2026-05-08 01:12 | 43.75515 | -79.47829 | 2544 ft | 133 kts | 236° |
| 2026-05-08 01:13 | 43.74917 | -79.48769 | 2442 ft | 126 kts | 232° |
| 2026-05-08 01:13 | 43.74324 | -79.49666 | 2340 ft | 125 kts | 232° |
| 2026-05-08 01:13 | 43.73751 | -79.50523 | 2271 ft | 120 kts | 232° |
| 2026-05-08 01:13 | 43.73177 | -79.51372 | 2211 ft | 123 kts | 232° |
| 2026-05-08 01:14 | 43.72586 | -79.52238 | 2155 ft | 126 kts | 231° |
| 2026-05-08 01:14 | 43.71970 | -79.53168 | 2022 ft | 132 kts | 232° |
| 2026-05-08 01:14 | 43.71365 | -79.54099 | 1790 ft | 129 kts | 233° |
| 2026-05-08 01:14 | 43.70755 | -79.54993 | 1573 ft | 124 kts | 229° |
| 2026-05-08 01:15 | 43.70178 | -79.55844 | 1371 ft | 121 kts | 231° |
| 2026-05-08 01:15 | 43.69613 | -79.56690 | 1214 ft | 119 kts | 230° |
| 2026-05-08 01:15 | 43.69051 | -79.57526 | 1066 ft | 118 kts | 229° |
| 2026-05-08 01:15 | 43.68487 | -79.58340 | 887 ft | 117 kts | 229° |
| 2026-05-08 01:16 | 43.67917 | -79.59158 | 714 ft | 116 kts | 228° |
| 2026-05-08 01:16 | 43.67361 | -79.59970 | 548 ft | 115 kts | 229° |
| 2026-05-08 01:16 | 43.66894 | -79.60652 | 521 ft | 58 kts | 224° |
| 2026-05-08 01:16 | 43.66729 | -79.60979 | 517 ft | 25 kts | 250° |
| 2026-05-08 01:17 | 43.66689 | -79.61147 | 519 ft | 15 kts | 254° |
| 2026-05-08 01:17 | 43.66705 | -79.61274 | 522 ft | 13 kts | 315° |
| 2026-05-08 01:17 | 43.66770 | -79.61360 | 525 ft | 12 kts | 317° |
| 2026-05-08 01:17 | 43.66820 | -79.61424 | 529 ft | 7 kts | 316° |
| 2026-05-08 01:18 | 43.66851 | -79.61465 | 531 ft | 5 kts | 317° |
| 2026-05-08 01:18 | 43.66874 | -79.61496 | 533 ft | 4 kts | 316° |
| 2026-05-08 01:18 | 43.66898 | -79.61528 | 535 ft | 6 kts | 316° |
| 2026-05-08 01:18 | 43.66938 | -79.61581 | 538 ft | 9 kts | 317° |
| 2026-05-08 01:19 | 43.66998 | -79.61659 | 542 ft | 13 kts | 316° |
| 2026-05-08 01:19 | 43.67073 | -79.61757 | 545 ft | 15 kts | 316° |
| 2026-05-08 01:19 | 43.67149 | -79.61855 | 548 ft | 14 kts | 317° |
| 2026-05-08 01:19 | 43.67228 | -79.61959 | 549 ft | 16 kts | 317° |
| 2026-05-08 01:20 | 43.67317 | -79.62073 | 549 ft | 18 kts | 316° |
| 2026-05-08 01:20 | 43.67415 | -79.62202 | 549 ft | 20 kts | 317° |
| 2026-05-08 01:20 | 43.67504 | -79.62322 | 549 ft | 14 kts | 308° |
| 2026-05-08 01:20 | 43.67490 | -79.62432 | 549 ft | 12 kts | 227° |
| 2026-05-08 01:21 | 43.67453 | -79.62490 | 549 ft | 0 kts | 226° |
| 2026-05-08 01:21 | 43.67452 | -79.62491 | 549 ft | 0 kts | 226° |
| 2026-05-08 01:21 | 43.67450 | -79.62495 | 549 ft | 2 kts | 236° |
| 2026-05-08 01:22 | 43.67461 | -79.62541 | 549 ft | 7 kts | 316° |
| 2026-05-08 01:22 | 43.67462 | -79.62584 | 549 ft | 3 kts | 234° |
| 2026-05-08 01:22 | 43.67460 | -79.62588 | 549 ft | 0 kts | 227° |